Погода Горняцкийна неделю

Ростовская область, Россия

22 - 28 мая
  • 22мая
    Сегодня
    +10°
    +28°
    Ясно и безоблачно
    ВремяПогодаТемператураВлажностьДавлениеВетер, м/сВероятность осадков
    00:00Облачно с прояснениями+14°C53 %759 мм2.2 м/с2 %
    03:00Ясно и безоблачно+12°C52 %759 мм1.7 м/с2 %
    06:00Практически безоблачно+14°C55 %759 мм0.7 м/с2 %
    09:00Практически безоблачно+23°C31 %759 мм1.3 м/с2 %
    12:00Практически безоблачно+27°C23 %759 мм2.0 м/с2 %
    15:00Ясно и безоблачно+28°C23 %758 мм1.5 м/с2 %
    18:00Практически безоблачно+27°C26 %757 мм1.7 м/с1 %
    21:00Ясно и безоблачно+18°C42 %757 мм2.6 м/с2 %
  • 23мая
    Четверг
    +12°
    +29°
    Ясно и безоблачно
    ВремяПогодаТемператураВлажностьДавлениеВетер, м/сВероятность осадков
    00:00Ясно и безоблачно+17°C40 %757 мм1.1 м/с2 %
    03:00Ясно и безоблачно+12°C58 %757 мм2.2 м/с2 %
    06:00Ясно и безоблачно+13°C55 %757 мм1.0 м/с2 %
    09:00Ясно и безоблачно+23°C33 %757 мм0.8 м/с2 %
    12:00Ясно и безоблачно+28°C22 %757 мм3.0 м/с2 %
    15:00Ясно и безоблачно+28°C23 %756 мм2.1 м/с3 %
    18:00Практически безоблачно+24°C37 %757 мм5.9 м/с13 %
    21:00Ясно и безоблачно+18°C48 %758 мм4.0 м/с2 %
  • 24мая
    Пятница
    +8°
    +22°
    Ясно и безоблачно
    ВремяПогодаТемператураВлажностьДавлениеВетер, м/сВероятность осадков
    00:00Ясно и безоблачно+16°C57 %758 мм4.9 м/с2 %
    03:00Ясно и безоблачно+14°C70 %759 мм5.3 м/с2 %
    06:00Ясно и безоблачно+13°C46 %761 мм6.3 м/с2 %
    09:00Ясно и безоблачно+18°C36 %762 мм7.2 м/с2 %
    12:00Ясно и безоблачно+21°C29 %762 мм7.2 м/с2 %
    15:00Ясно и безоблачно+22°C21 %762 мм7.0 м/с2 %
    18:00Ясно и безоблачно+21°C19 %762 мм7.0 м/с2 %
    21:00Ясно и безоблачно+15°C23 %764 мм5.4 м/с2 %
  • 25мая
    Суббота
    +10°
    +22°
    Ясно и безоблачно
    ВремяПогодаТемператураВлажностьДавлениеВетер, м/сВероятность осадков
    00:00Ясно и безоблачно+12°C28 %765 мм5.6 м/с2 %
    03:00Ясно и безоблачно+9°C35 %765 мм5.2 м/с2 %
    06:00Ясно и безоблачно+10°C40 %765 мм5.0 м/с2 %
    09:00Ясно и безоблачно+17°C29 %766 мм6.6 м/с2 %
    12:00Ясно и безоблачно+20°C21 %765 мм6.6 м/с2 %
    15:00Ясно и безоблачно+22°C18 %764 мм6.7 м/с2 %
    18:00Ясно и безоблачно+21°C21 %762 мм6.4 м/с2 %
    21:00Ясно и безоблачно+16°C27 %762 мм4.2 м/с2 %
Мы используем cookies
Соглашаюсь